METAR luchtvaart weer gegevens      EHAM Amsterdam Airport Schiphol
Temperatuur
13°C Temperatuur
9°C Dauwpunt
77% Vochtigheid



Wind
10 KM/U
6 MPH
3 M/S
5 KTS



300°
WNW
Huidig weer

Wat bewolking Wat bewolking
Luchtdruk 1024.92 (hPa) - 30.27 (inHg)
Zicht 6.2 (mijl) - 10 (km)
Vliegveld
Vliegveld code EHAM

Locatie : Amsterdam Airport Schiphol
Afstand: 25 (km)

Metar:
EHAM 052025Z 30005KT 270V330 9999 FEW028 13/09 Q1025 NOSIG

Tijd: 05-07-2022 22:25 CEST